createdAt,value
2018-01-13T00:01:26.232Z,95.50
2018-01-13T00:03:53.669Z,95.50
2018-01-13T00:06:21.147Z,95.40
2018-01-13T00:08:48.629Z,95.50
2018-01-13T00:11:16.818Z,95.50
2018-01-13T00:13:44.307Z,95.40
2018-01-13T00:16:11.768Z,95.50
2018-01-13T00:18:39.990Z,95.40
2018-01-13T00:21:07.470Z,95.40
2018-01-13T00:23:34.938Z,95.40
2018-01-13T00:26:02.431Z,95.40
2018-01-13T00:28:29.857Z,95.40
2018-01-13T00:30:57.337Z,95.40
2018-01-13T00:33:24.799Z,95.40
2018-01-13T00:35:52.277Z,95.40
2018-01-13T00:38:19.733Z,95.40
2018-01-13T00:40:47.195Z,95.40
2018-01-13T00:43:14.649Z,95.40
2018-01-13T00:45:42.910Z,95.40
2018-01-13T00:48:10.385Z,95.40
2018-01-13T00:50:37.846Z,95.40
2018-01-13T00:53:05.306Z,95.40
2018-01-13T00:55:32.793Z,95.40
2018-01-13T00:58:00.267Z,95.40
2018-01-13T01:00:27.756Z,95.30
2018-01-13T01:02:55.247Z,95.40
2018-01-13T01:05:22.730Z,95.40
2018-01-13T01:07:50.195Z,95.40
2018-01-13T01:10:17.710Z,95.40
2018-01-13T01:12:45.198Z,95.30
2018-01-13T01:15:12.650Z,95.30
2018-01-13T01:17:40.130Z,95.30
2018-01-13T01:20:07.605Z,95.40
2018-01-13T01:22:35.055Z,95.30
2018-01-13T01:25:03.309Z,95.30
2018-01-13T01:27:30.788Z,95.30
2018-01-13T01:29:58.246Z,95.30
2018-01-13T01:32:25.725Z,95.30
2018-01-13T01:34:53.197Z,95.40
2018-01-13T01:37:20.686Z,95.40
2018-01-13T01:39:48.138Z,95.40
2018-01-13T01:42:16.467Z,95.40
2018-01-13T01:44:43.918Z,95.40
2018-01-13T01:47:12.187Z,95.40
2018-01-13T01:49:39.628Z,95.40
2018-01-13T01:52:07.104Z,95.30
2018-01-13T01:54:34.554Z,95.30
2018-01-13T01:57:02.794Z,95.40
2018-01-13T01:59:30.245Z,95.40
2018-01-13T02:01:57.773Z,95.30
2018-01-13T02:04:25.419Z,95.30
2018-01-13T02:06:52.912Z,95.30
2018-01-13T02:09:20.393Z,95.30
2018-01-13T02:11:47.899Z,95.30
2018-01-13T02:14:15.359Z,95.30
2018-01-13T02:16:43.312Z,95.30
2018-01-13T02:19:10.790Z,95.30
2018-01-13T02:21:39.003Z,95.30
2018-01-13T02:24:06.471Z,95.30
2018-01-13T02:26:33.949Z,95.30
2018-01-13T02:29:02.225Z,95.60
2018-01-13T02:31:29.718Z,95.30
2018-01-13T02:33:57.206Z,95.30
2018-01-13T02:36:24.740Z,95.30
2018-01-13T02:38:52.209Z,95.20
2018-01-13T02:41:19.705Z,95.20
2018-01-13T02:43:47.172Z,95.20
2018-01-13T02:46:14.618Z,95.20
2018-01-13T02:48:42.143Z,95.20
2018-01-13T02:51:09.602Z,95.20
2018-01-13T02:53:37.071Z,95.20
2018-01-13T02:56:04.546Z,95.20
2018-01-13T02:58:32.060Z,95.20
2018-01-13T03:00:59.508Z,95.20
2018-01-13T03:03:26.965Z,95.20
2018-01-13T03:05:55.223Z,95.20
2018-01-13T03:08:22.668Z,95.20
2018-01-13T03:10:50.114Z,95.20
2018-01-13T03:13:18.354Z,95.20
2018-01-13T03:15:45.810Z,95.20
2018-01-13T03:18:13.288Z,95.20
2018-01-13T03:20:40.766Z,95.20
2018-01-13T03:23:08.262Z,95.20
2018-01-13T03:25:35.736Z,95.20
2018-01-13T03:28:03.253Z,95.20
2018-01-13T03:30:30.702Z,95.20
2018-01-13T03:32:58.183Z,95.20
2018-01-13T03:35:25.667Z,95.20
2018-01-13T03:37:53.135Z,95.20
2018-01-13T03:40:20.637Z,95.20
2018-01-13T03:42:48.289Z,95.20
2018-01-13T03:45:15.749Z,95.20
2018-01-13T03:47:44.007Z,95.20
2018-01-13T03:50:11.490Z,95.20
2018-01-13T03:52:38.963Z,95.20
2018-01-13T03:55:06.490Z,95.20
2018-01-13T03:57:34.839Z,95.20
2018-01-13T04:00:02.339Z,95.10
2018-01-13T04:02:29.797Z,95.10
2018-01-13T04:04:57.334Z,95.20
2018-01-13T04:07:25.591Z,95.10
2018-01-13T04:09:53.042Z,95.10
2018-01-13T04:12:20.577Z,95.10
2018-01-13T04:14:48.026Z,95.10
2018-01-13T04:17:15.495Z,95.10
2018-01-13T04:19:42.971Z,95.10
2018-01-13T04:22:10.434Z,95.10
2018-01-13T04:24:38.681Z,95.20
2018-01-13T04:27:06.206Z,95.20
2018-01-13T04:29:33.690Z,95.20
2018-01-13T04:32:01.245Z,95.10
2018-01-13T04:34:28.689Z,95.20
2018-01-13T04:36:56.151Z,95.20
2018-01-13T04:39:23.626Z,95.20
2018-01-13T04:41:51.163Z,95.20
2018-01-13T04:44:18.630Z,95.20
2018-01-13T04:46:46.114Z,95.20
2018-01-13T04:49:13.591Z,95.20
2018-01-13T04:51:41.074Z,95.20
2018-01-13T04:54:08.543Z,95.10
2018-01-13T04:56:36.030Z,95.10
2018-01-13T04:59:03.483Z,95.10
2018-01-13T05:01:30.983Z,95.10
2018-01-13T05:03:58.443Z,95.10
2018-01-13T05:06:25.934Z,95.10
2018-01-13T05:08:54.148Z,95.10
2018-01-13T05:11:21.591Z,95.10
2018-01-13T05:13:49.073Z,95.10
2018-01-13T05:16:16.520Z,95.10
2018-01-13T05:18:44.074Z,95.40
2018-01-13T05:21:11.628Z,95.10
2018-01-13T05:23:39.849Z,95.10
2018-01-13T05:26:07.335Z,95.10
2018-01-13T05:28:34.835Z,95.10
2018-01-13T05:31:02.254Z,95.10
2018-01-13T05:33:29.745Z,95.10
2018-01-13T05:35:57.218Z,95.10
2018-01-13T05:38:25.691Z,95.00
2018-01-13T05:40:53.919Z,94.90
2018-01-13T05:43:21.387Z,94.90
2018-01-13T05:45:48.908Z,95.00
2018-01-13T05:48:16.374Z,95.00
2018-01-13T05:50:43.852Z,95.00
2018-01-13T05:53:11.326Z,95.00
2018-01-13T05:55:38.771Z,95.00
2018-01-13T05:58:06.286Z,95.00
2018-01-13T06:00:33.761Z,95.00
2018-01-13T06:03:01.259Z,94.90
2018-01-13T06:05:28.759Z,94.90
2018-01-13T06:07:56.235Z,94.70
2018-01-13T06:10:23.728Z,94.80
2018-01-13T06:12:51.287Z,94.80
2018-01-13T06:15:18.749Z,94.90
2018-01-13T06:17:46.207Z,94.80
2018-01-13T06:20:13.681Z,94.90
2018-01-13T06:22:41.140Z,94.80
2018-01-13T06:25:09.403Z,94.90
2018-01-13T06:27:36.872Z,94.90
2018-01-13T06:30:04.375Z,94.80
2018-01-13T06:32:32.670Z,94.80
2018-01-13T06:35:00.159Z,94.80
2018-01-13T06:37:27.649Z,94.80
2018-01-13T06:39:55.908Z,94.80
2018-01-13T06:42:23.390Z,94.70
2018-01-13T06:44:50.867Z,94.70
2018-01-13T06:47:18.342Z,94.70
2018-01-13T06:49:45.806Z,94.70
2018-01-13T06:52:13.254Z,94.60
2018-01-13T06:54:41.514Z,94.70
2018-01-13T06:57:09.009Z,94.70
2018-01-13T06:59:36.466Z,94.70
2018-01-13T07:02:03.930Z,94.70
2018-01-13T07:04:31.518Z,94.60
2018-01-13T07:06:59.001Z,94.60
2018-01-13T07:09:26.493Z,94.50
2018-01-13T07:11:54.012Z,94.50
2018-01-13T07:14:22.226Z,94.60
2018-01-13T07:16:49.699Z,94.50
2018-01-13T07:19:17.952Z,94.50
2018-01-13T07:21:45.422Z,94.50
2018-01-13T07:24:12.900Z,94.50
2018-01-13T07:26:40.390Z,94.50
2018-01-13T07:29:07.847Z,94.50
2018-01-13T07:31:35.380Z,94.50
2018-01-13T07:34:03.615Z,94.50
2018-01-13T07:36:31.078Z,94.50
2018-01-13T07:38:59.339Z,94.50
2018-01-13T07:41:26.796Z,94.50
2018-01-13T07:43:54.252Z,94.50
2018-01-13T07:46:21.718Z,94.50
2018-01-13T07:48:49.171Z,94.50
2018-01-13T07:51:17.414Z,94.50
2018-01-13T07:53:44.895Z,94.50
2018-01-13T07:56:12.367Z,94.50
2018-01-13T07:58:39.846Z,94.50
2018-01-13T08:01:07.312Z,94.50
2018-01-13T08:03:34.795Z,94.50
2018-01-13T08:06:02.258Z,94.50
2018-01-13T08:08:30.483Z,94.50
2018-01-13T08:10:57.987Z,94.50
2018-01-13T08:13:25.450Z,94.50
2018-01-13T08:15:52.912Z,94.50
2018-01-13T08:18:20.404Z,94.50
2018-01-13T08:20:47.858Z,94.30
2018-01-13T08:23:16.096Z,94.30
2018-01-13T08:25:43.569Z,94.30
2018-01-13T08:28:11.027Z,94.10
2018-01-13T08:30:38.512Z,94.20
2018-01-13T08:33:06.049Z,94.20
2018-01-13T08:35:33.522Z,94.20
2018-01-13T08:38:00.974Z,94.10
2018-01-13T08:40:28.423Z,94.20
2018-01-13T08:42:55.916Z,94.30
2018-01-13T08:45:23.366Z,94.30
2018-01-13T08:47:51.622Z,94.20
2018-01-13T08:50:19.082Z,94.20
2018-01-13T08:52:46.554Z,94.20
2018-01-13T08:55:14.019Z,94.20
2018-01-13T08:57:41.550Z,94.20
2018-01-13T09:00:09.773Z,94.10
2018-01-13T09:02:37.246Z,94.40
2018-01-13T09:05:04.712Z,94.20
2018-01-13T09:07:32.171Z,94.30
2018-01-13T09:09:59.663Z,94.00
2018-01-13T09:12:27.151Z,93.90
2018-01-13T09:14:54.606Z,94.00
2018-01-13T09:17:22.058Z,94.00
2018-01-13T09:19:50.790Z,93.90
2018-01-13T09:22:18.974Z,94.00
2018-01-13T09:24:46.451Z,94.00
2018-01-13T09:27:13.919Z,94.00
2018-01-13T09:29:41.440Z,93.90
2018-01-13T09:32:08.944Z,93.80
2018-01-13T09:34:36.408Z,94.00
2018-01-13T09:37:03.966Z,93.90
2018-01-13T09:39:31.427Z,93.80
2018-01-13T09:41:58.921Z,93.80
2018-01-13T09:44:26.382Z,93.80
2018-01-13T09:46:53.910Z,93.70
2018-01-13T09:49:21.420Z,93.80
2018-01-13T09:51:48.883Z,93.70
2018-01-13T09:54:16.383Z,93.70
2018-01-13T09:56:43.861Z,93.60
2018-01-13T09:59:11.345Z,93.50
2018-01-13T10:01:38.820Z,93.60
2018-01-13T10:04:07.072Z,93.70
2018-01-13T10:06:34.530Z,93.70
2018-01-13T10:09:02.017Z,93.70
2018-01-13T10:11:29.477Z,93.60
2018-01-13T10:13:58.094Z,93.20
2018-01-13T10:16:25.574Z,93.20
2018-01-13T10:18:53.030Z,93.30
2018-01-13T10:21:22.063Z,93.40
2018-01-13T10:23:49.523Z,93.40
2018-01-13T10:26:16.972Z,93.40
2018-01-13T10:28:44.454Z,93.40
2018-01-13T10:31:11.931Z,93.30
2018-01-13T10:33:39.388Z,93.40
2018-01-13T10:36:06.915Z,93.20
2018-01-13T10:38:34.367Z,93.30
2018-01-13T10:41:01.837Z,93.20
2018-01-13T10:43:29.299Z,93.20
2018-01-13T10:45:56.782Z,93.20
2018-01-13T10:48:24.303Z,93.20
2018-01-13T10:50:51.767Z,93.30
2018-01-13T10:53:19.230Z,93.30
2018-01-13T10:55:46.820Z,93.60
2018-01-13T10:58:14.287Z,93.20
2018-01-13T11:00:41.761Z,93.20
2018-01-13T11:03:09.264Z,93.10
2018-01-13T11:05:36.738Z,93.20
2018-01-13T11:08:07.719Z,93.50
2018-01-13T11:10:35.194Z,93.20
2018-01-13T11:13:02.650Z,93.00
2018-01-13T11:15:30.122Z,93.10
2018-01-13T11:17:57.592Z,93.00
2018-01-13T11:20:25.031Z,93.10
2018-01-13T11:22:52.579Z,93.10
2018-01-13T11:25:20.024Z,93.20
2018-01-13T11:27:47.478Z,93.10
2018-01-13T11:30:14.980Z,93.10
2018-01-13T11:32:43.206Z,93.10
2018-01-13T11:35:10.698Z,93.10
2018-01-13T11:37:38.200Z,93.00
2018-01-13T11:40:05.638Z,93.20
2018-01-13T11:42:33.111Z,93.10
2018-01-13T11:45:00.571Z,93.10
2018-01-13T11:47:28.810Z,93.10
2018-01-13T11:49:56.290Z,93.10
2018-01-13T11:52:26.775Z,93.00
2018-01-13T11:54:54.239Z,92.90
2018-01-13T11:57:21.680Z,92.70
2018-01-13T11:59:49.170Z,93.20
2018-01-13T12:02:16.631Z,93.00
2018-01-13T12:04:44.102Z,92.90
2018-01-13T12:07:11.886Z,92.90
2018-01-13T12:09:40.117Z,93.00
2018-01-13T12:12:07.665Z,93.00
2018-01-13T12:14:35.863Z,93.00
2018-01-13T12:17:03.348Z,93.00
2018-01-13T12:19:30.852Z,92.50
2018-01-13T12:21:58.323Z,92.60
2018-01-13T12:24:25.814Z,92.70
2018-01-13T12:26:53.314Z,92.70
2018-01-13T12:29:20.786Z,92.80
2018-01-13T12:31:48.349Z,92.80
2018-01-13T12:34:15.847Z,92.80
2018-01-13T12:36:43.291Z,92.60
2018-01-13T12:39:10.793Z,92.50
2018-01-13T12:41:38.249Z,92.60
2018-01-13T12:44:05.754Z,92.30
2018-01-13T12:46:33.241Z,92.60
2018-01-13T12:49:00.690Z,92.60
2018-01-13T12:51:28.320Z,92.40
2018-01-13T12:53:55.774Z,92.30
2018-01-13T12:56:23.247Z,92.00
2018-01-13T12:58:50.745Z,92.10
2018-01-13T13:01:18.891Z,92.30
2018-01-13T13:03:47.120Z,92.30
2018-01-13T13:06:14.611Z,92.30
2018-01-13T13:08:42.066Z,92.20
2018-01-13T13:11:09.551Z,92.40
2018-01-13T13:13:37.008Z,92.30
2018-01-13T13:16:05.261Z,92.40
2018-01-13T13:18:32.707Z,92.40
2018-01-13T13:21:00.152Z,92.40
2018-01-13T13:23:27.622Z,92.10
2018-01-13T13:25:55.093Z,92.30
2018-01-13T13:28:22.562Z,92.40
2018-01-13T13:30:50.038Z,92.40
2018-01-13T13:33:17.528Z,92.30
2018-01-13T13:35:44.974Z,92.20
2018-01-13T13:38:12.460Z,92.10
2018-01-13T13:40:39.926Z,92.00
2018-01-13T13:43:07.405Z,92.10
2018-01-13T13:45:34.855Z,92.20
2018-01-13T13:48:02.339Z,92.20
2018-01-13T13:50:29.791Z,92.10
2018-01-13T13:52:58.020Z,92.20
2018-01-13T13:55:25.527Z,92.20
2018-01-13T13:57:53.743Z,92.20
2018-01-13T14:00:21.210Z,92.20
2018-01-13T14:02:48.677Z,92.10
2018-01-13T14:05:16.142Z,92.10
2018-01-13T14:07:44.415Z,91.70
2018-01-13T14:10:11.879Z,91.70
2018-01-13T14:12:39.324Z,91.90
2018-01-13T14:15:06.805Z,91.90
2018-01-13T14:17:34.276Z,92.00
2018-01-13T14:20:01.767Z,91.90
2018-01-13T14:22:30.010Z,92.00
2018-01-13T14:24:57.676Z,92.00
2018-01-13T14:27:25.140Z,91.60
2018-01-13T14:29:52.586Z,91.80
2018-01-13T14:32:20.824Z,91.80
2018-01-13T14:34:48.391Z,91.80
2018-01-13T14:37:15.833Z,91.50
2018-01-13T14:39:44.042Z,91.70
2018-01-13T14:42:12.543Z,91.70
2018-01-13T14:44:40.801Z,91.70
2018-01-13T14:47:08.263Z,91.60
2018-01-13T14:49:35.773Z,91.30
2018-01-13T14:52:03.283Z,91.40
2018-01-13T14:54:30.803Z,91.40
2018-01-13T14:56:58.375Z,91.60
2018-01-13T14:59:26.796Z,91.60
2018-01-13T15:01:54.312Z,91.90
2018-01-13T15:04:21.779Z,91.60
2018-01-13T15:06:49.248Z,91.70
2018-01-13T15:09:16.755Z,91.50
2018-01-13T15:11:44.988Z,91.60
2018-01-13T15:14:12.443Z,91.60
2018-01-13T15:16:40.714Z,91.50
2018-01-13T15:19:08.205Z,91.50
2018-01-13T15:21:36.595Z,91.40
2018-01-13T15:24:04.065Z,91.50
2018-01-13T15:26:31.554Z,91.60
2018-01-13T15:28:59.064Z,91.40
2018-01-13T15:31:27.296Z,91.20
2018-01-13T15:33:54.798Z,91.20
2018-01-13T15:36:23.589Z,91.20
2018-01-13T15:38:51.070Z,90.90
2018-01-13T15:41:27.998Z,91.10
2018-01-13T15:43:56.442Z,90.90
2018-01-13T15:46:24.535Z,91.20
2018-01-13T15:48:52.637Z,91.10
2018-01-13T15:51:20.165Z,91.00
2018-01-13T15:53:47.652Z,91.20
2018-01-13T15:56:15.109Z,91.10
2018-01-13T15:58:42.590Z,91.10
2018-01-13T16:01:10.135Z,91.10
2018-01-13T16:03:37.606Z,90.70
2018-01-13T16:06:05.090Z,91.00
2018-01-13T16:08:32.544Z,91.10
2018-01-13T16:11:00.824Z,91.00
2018-01-13T16:13:28.261Z,91.00
2018-01-13T16:15:55.760Z,91.10
2018-01-13T16:18:23.202Z,91.10
2018-01-13T16:20:50.671Z,91.10
2018-01-13T16:23:19.638Z,90.90
2018-01-13T16:25:47.123Z,90.90
2018-01-13T16:28:15.383Z,90.90
2018-01-13T16:30:42.878Z,91.00
2018-01-13T16:33:10.371Z,90.60
2018-01-13T16:35:37.855Z,90.80
2018-01-13T16:38:05.291Z,90.60
2018-01-13T16:40:32.862Z,90.80
2018-01-13T16:43:01.115Z,90.60
2018-01-13T16:45:28.573Z,90.60
2018-01-13T16:47:56.071Z,90.60
2018-01-13T16:50:23.526Z,90.50
2018-01-13T16:52:51.022Z,90.40
2018-01-13T16:55:18.503Z,90.50
2018-01-13T16:57:45.963Z,90.20
2018-01-13T17:00:13.451Z,90.00
2018-01-13T17:02:40.924Z,90.20
2018-01-13T17:05:08.397Z,90.20
2018-01-13T17:07:35.896Z,90.10
2018-01-13T17:10:03.382Z,90.10
2018-01-13T17:12:30.887Z,90.10
2018-01-13T17:14:59.140Z,90.10
2018-01-13T17:17:26.645Z,90.10
2018-01-13T17:19:54.898Z,90.30
2018-01-13T17:22:23.153Z,90.10
2018-01-13T17:24:50.679Z,90.10
2018-01-13T17:27:18.895Z,89.80
2018-01-13T17:29:46.396Z,89.80
2018-01-13T17:32:13.923Z,90.10
2018-01-13T17:34:43.596Z,90.10
2018-01-13T17:37:11.075Z,90.10
2018-01-13T17:39:38.572Z,90.10
2018-01-13T17:42:06.068Z,89.70
2018-01-13T17:44:33.533Z,89.90
2018-01-13T17:47:00.996Z,90.00
2018-01-13T17:49:28.486Z,90.10
2018-01-13T17:51:56.081Z,88.80
2018-01-13T17:54:23.577Z,89.90
2018-01-13T17:56:51.088Z,89.40
2018-01-13T17:59:19.387Z,89.30
2018-01-13T18:01:47.614Z,89.10
2018-01-13T18:04:15.090Z,89.10
2018-01-13T18:06:42.573Z,88.40
2018-01-13T18:09:10.051Z,88.90
2018-01-13T18:11:37.522Z,89.10
2018-01-13T18:14:05.839Z,88.20
2018-01-13T18:16:33.335Z,88.60
2018-01-13T18:19:00.834Z,88.00
2018-01-13T18:21:28.351Z,88.50
2018-01-13T18:23:56.560Z,88.20
2018-01-13T18:26:24.002Z,88.20
2018-01-13T18:28:51.506Z,88.10
2018-01-13T18:31:19.764Z,88.40
2018-01-13T18:33:49.427Z,88.40
2018-01-13T18:36:17.672Z,87.80
2018-01-13T18:38:46.274Z,87.80
2018-01-13T18:41:13.751Z,88.30
2018-01-13T18:43:41.225Z,88.00
2018-01-13T18:46:08.725Z,87.40
2018-01-13T18:48:37.131Z,88.10
2018-01-13T18:51:05.342Z,88.50
2018-01-13T18:53:33.182Z,88.60
2018-01-13T18:56:00.660Z,88.30
2018-01-13T18:58:28.952Z,87.10
2018-01-13T19:00:56.467Z,87.10
2018-01-13T19:03:23.968Z,87.50
2018-01-13T19:05:51.439Z,87.10
2018-01-13T19:08:18.892Z,88.30
2018-01-13T19:10:46.430Z,88.40
2018-01-13T19:13:15.491Z,88.20
2018-01-13T19:15:42.982Z,88.20
2018-01-13T19:18:10.439Z,87.40
2018-01-13T19:20:38.774Z,87.00
2018-01-13T19:23:06.271Z,87.90
2018-01-13T19:25:33.778Z,88.00
2018-01-13T19:28:01.999Z,87.10
2018-01-13T19:30:29.466Z,87.20
2018-01-13T19:32:56.948Z,86.50
2018-01-13T19:35:24.459Z,86.90
2018-01-13T19:37:51.935Z,86.30
2018-01-13T19:40:19.478Z,86.80
2018-01-13T19:42:48.336Z,87.80
2018-01-13T19:45:15.830Z,87.80
2018-01-13T19:47:43.928Z,87.50
2018-01-13T19:50:11.381Z,87.00
2018-01-13T19:52:39.741Z,87.60
2018-01-13T19:55:09.161Z,87.30
2018-01-13T19:57:37.393Z,87.00
2018-01-13T20:00:06.072Z,87.00
2018-01-13T20:02:33.615Z,87.30
2018-01-13T20:05:01.117Z,87.50
2018-01-13T20:07:29.352Z,86.60
2018-01-13T20:09:56.827Z,86.60
2018-01-13T20:12:24.323Z,86.80
2018-01-13T20:14:51.877Z,87.20
2018-01-13T20:17:19.365Z,87.10
2018-01-13T20:19:47.438Z,87.30
2018-01-13T20:22:16.534Z,87.20
2018-01-13T20:24:44.044Z,87.80
2018-01-13T20:27:12.139Z,86.80
2018-01-13T20:29:40.020Z,87.50
2018-01-13T20:32:10.191Z,86.40
2018-01-13T20:34:37.669Z,86.50
2018-01-13T20:37:05.155Z,86.70
2018-01-13T20:39:33.597Z,86.70
2018-01-13T20:42:01.081Z,87.10
2018-01-13T20:44:28.555Z,86.80
2018-01-13T20:46:56.043Z,86.90
2018-01-13T20:49:23.530Z,87.00
2018-01-13T20:51:52.477Z,86.30
2018-01-13T20:54:20.679Z,86.30
2018-01-13T20:56:48.184Z,86.00
2018-01-13T20:59:15.686Z,85.00
2018-01-13T21:01:44.993Z,86.10
2018-01-13T21:04:13.416Z,85.60
2018-01-13T21:06:41.990Z,85.80
2018-01-13T21:09:09.478Z,84.80
2018-01-13T21:11:37.733Z,85.70
2018-01-13T21:14:05.836Z,85.20
2018-01-13T21:16:33.852Z,84.70
2018-01-13T21:19:02.137Z,84.70
2018-01-13T21:21:29.612Z,84.00
2018-01-13T21:23:57.097Z,84.20
2018-01-13T21:26:24.589Z,84.60
2018-01-13T21:28:52.500Z,84.30
2018-01-13T21:31:19.988Z,84.70
2018-01-13T21:33:47.466Z,84.20
2018-01-13T21:36:14.949Z,84.30
2018-01-13T21:38:43.759Z,85.00
2018-01-13T21:41:11.284Z,84.30
2018-01-13T21:43:39.674Z,83.80
2018-01-13T21:46:08.492Z,84.70
2018-01-13T21:48:36.242Z,84.70
2018-01-13T21:51:03.724Z,85.10
2018-01-13T21:53:31.187Z,85.10
2018-01-13T21:55:58.649Z,85.10
2018-01-13T21:58:26.185Z,85.20
2018-01-13T22:00:54.779Z,84.40
2018-01-13T22:03:22.997Z,85.50
2018-01-13T22:05:50.494Z,84.80
2018-01-13T22:08:17.953Z,84.70
2018-01-13T22:10:46.513Z,84.40
2018-01-13T22:13:14.149Z,84.10
2018-01-13T22:15:41.619Z,84.70
2018-01-13T22:18:10.114Z,84.00
2018-01-13T22:20:38.370Z,83.70
2018-01-13T22:23:05.843Z,83.70
2018-01-13T22:25:33.303Z,84.30
2018-01-13T22:28:01.439Z,84.40
2018-01-13T22:30:30.696Z,84.90
2018-01-13T22:32:58.971Z,83.00
2018-01-13T22:35:27.223Z,83.80
2018-01-13T22:37:55.597Z,83.80
2018-01-13T22:40:23.073Z,84.00
2018-01-13T22:42:50.555Z,83.60
2018-01-13T22:45:18.999Z,84.00
2018-01-13T22:47:46.476Z,83.40
2018-01-13T22:50:15.279Z,83.10
2018-01-13T22:52:42.889Z,83.10
2018-01-13T22:55:11.181Z,83.60
2018-01-13T22:57:38.659Z,83.60
2018-01-13T23:00:06.179Z,83.50
2018-01-13T23:02:33.891Z,82.70
2018-01-13T23:05:01.381Z,82.10
2018-01-13T23:07:28.839Z,82.70
2018-01-13T23:09:56.330Z,82.20
2018-01-13T23:12:23.804Z,82.00
2018-01-13T23:14:51.291Z,82.00
2018-01-13T23:17:18.738Z,82.30
2018-01-13T23:19:46.969Z,82.00
2018-01-13T23:22:14.434Z,82.00
2018-01-13T23:24:41.943Z,82.50
2018-01-13T23:27:21.249Z,81.90
2018-01-13T23:29:48.780Z,81.70
2018-01-13T23:32:17.854Z,82.70
2018-01-13T23:34:45.298Z,81.90
2018-01-13T23:37:12.794Z,80.90
2018-01-13T23:39:41.065Z,82.70
2018-01-13T23:42:08.535Z,82.70
2018-01-13T23:44:36.053Z,82.70
2018-01-13T23:47:03.504Z,82.70
2018-01-13T23:49:31.026Z,83.10
2018-01-13T23:51:58.510Z,82.70
2018-01-13T23:54:25.971Z,81.80
2018-01-13T23:56:54.236Z,80.90
2018-01-13T23:59:21.687Z,80.90
